Time;durP1;ratioP1;P1;durP2;ratioP2;P2;SDS_P1;SDS_P2;PMS_P1;PMS_P2;Temp;Humidity;BMP_temperature;BMP_pressure;BME280_temperature;BME280_humidity;BME280_pressure;Samples;Min_cycle;Max_cycle;Signal;HPM_P1;HPM_P2
2021/11/16 00:00:56;;;;;;;46.57;21.40;;;7.00;99.90;;;;;;4932965;29;20419;-74
2021/11/16 00:03:21;;;;;;;47.20;22.33;;;7.00;99.90;;;;;;4933100;29;20423;-73
2021/11/16 00:05:47;;;;;;;54.03;25.70;;;7.00;99.90;;;;;;4933970;29;20188;-73
2021/11/16 00:08:13;;;;;;;46.23;22.13;;;7.00;99.90;;;;;;4948324;29;20268;-73
2021/11/16 00:10:39;;;;;;;50.10;24.90;;;7.00;99.90;;;;;;4933338;29;20700;-71
2021/11/16 00:13:10;;;;;;;47.93;23.03;;;7.00;99.90;;;;;;4932249;29;20555;-74
2021/11/16 00:15:37;;;;;;;48.97;22.03;;;7.00;99.90;;;;;;4933856;29;20427;-73
2021/11/16 00:18:03;;;;;;;52.40;23.90;;;7.10;99.90;;;;;;4933432;29;20429;-73
2021/11/16 00:20:29;;;;;;;48.93;22.90;;;7.10;99.90;;;;;;4933315;29;20396;-73
2021/11/16 00:22:54;;;;;;;43.17;23.63;;;7.10;99.90;;;;;;4931631;29;20218;-73
2021/11/16 00:25:30;;;;;;;44.17;22.70;;;7.10;99.90;;;;;;4933576;29;20178;-73
2021/11/16 00:27:55;;;;;;;44.37;21.50;;;7.10;99.90;;;;;;4933525;29;20243;-73
2021/11/16 00:30:21;;;;;;;42.90;22.80;;;7.00;99.90;;;;;;4933324;29;20954;-73
2021/11/16 00:32:46;;;;;;;47.13;22.97;;;7.10;99.90;;;;;;4932038;29;20205;-73
2021/11/16 00:35:12;;;;;;;49.23;25.47;;;7.00;99.90;;;;;;4933270;29;20567;-74
2021/11/16 00:37:39;;;;;;;41.57;22.83;;;7.00;99.90;;;;;;4933496;29;20178;-73
2021/11/16 00:40:08;;;;;;;46.70;23.27;;;7.00;99.90;;;;;;4933598;29;20169;-73
2021/11/16 00:42:34;;;;;;;48.17;22.67;;;7.00;99.90;;;;;;4932219;28;20452;-73
2021/11/16 00:44:59;;;;;;;45.63;22.90;;;7.00;99.90;;;;;;4933014;29;20399;-73
2021/11/16 00:47:25;;;;;;;43.57;21.27;;;7.00;99.90;;;;;;4933089;29;20189;-72
2021/11/16 00:49:51;;;;;;;39.67;20.93;;;7.00;99.90;;;;;;4933230;29;20222;-74
2021/11/16 00:52:18;;;;;;;37.27;20.60;;;7.00;99.90;;;;;;4932309;29;20204;-74
2021/11/16 00:54:43;;;;;;;41.03;21.17;;;7.00;99.90;;;;;;4933252;28;20185;-73
2021/11/16 00:57:09;;;;;;;50.70;21.37;;;7.10;99.90;;;;;;4932495;29;20421;-73
2021/11/16 00:59:34;;;;;;;37.10;20.40;;;7.10;99.90;;;;;;4932974;29;20177;-73
2021/11/16 05:31:17;;;;;;;40.90;17.53;;;6.50;99.90;;;;;;5690565;23;20513;-71
2021/11/16 05:33:43;;;;;;;36.40;19.63;;;6.50;99.90;;;;;;4978255;28;20439;-74
2021/11/16 05:36:10;;;;;;;31.53;18.23;;;6.50;99.90;;;;;;4978436;28;20446;-73
2021/11/16 05:38:37;;;;;;;47.40;19.77;;;6.50;99.90;;;;;;4976122;28;20384;-73
2021/11/16 05:41:04;;;;;;;38.27;18.00;;;6.50;99.90;;;;;;4975750;28;20478;-74
2021/11/16 05:43:30;;;;;;;35.60;17.20;;;6.40;99.90;;;;;;4975884;28;20423;-74
2021/11/16 05:45:57;;;;;;;30.70;17.10;;;6.40;99.90;;;;;;4976058;28;20422;-74
2021/11/16 05:48:24;;;;;;;33.90;17.97;;;6.40;99.90;;;;;;4975953;28;20505;-74
2021/11/16 05:50:51;;;;;;;32.53;16.70;;;6.40;99.90;;;;;;4975764;28;20469;-73
2021/11/16 05:53:17;;;;;;;33.10;18.50;;;6.30;99.90;;;;;;4975444;28;20474;-74
2021/11/16 05:55:45;;;;;;;36.33;17.87;;;6.30;99.90;;;;;;4975682;28;20429;-74
2021/11/16 05:58:18;;;;;;;35.87;19.27;;;6.40;99.90;;;;;;4975559;28;20513;-74
2021/11/16 06:00:44;;;;;;;37.70;17.57;;;6.40;99.90;;;;;;4975444;28;20931;-74
2021/11/16 06:03:11;;;;;;;42.43;18.37;;;6.40;99.90;;;;;;4974989;28;20424;-74
2021/11/16 06:05:37;;;;;;;35.83;18.00;;;6.40;99.90;;;;;;4975508;28;20460;-74
2021/11/16 06:08:04;;;;;;;43.80;16.97;;;6.30;99.90;;;;;;4975750;28;20795;-74
2021/11/16 06:10:29;;;;;;;34.23;17.20;;;6.40;99.90;;;;;;4975579;28;20844;-72
2021/11/16 06:12:55;;;;;;;39.67;16.90;;;6.30;99.90;;;;;;4975246;28;20423;-73
2021/11/16 06:15:21;;;;;;;36.37;17.80;;;6.40;99.90;;;;;;4975095;28;20182;-74
2021/11/16 06:17:46;;;;;;;38.50;17.40;;;6.30;99.90;;;;;;4975347;28;20710;-74
2021/11/16 06:20:14;;;;;;;38.33;17.70;;;6.30;99.90;;;;;;4975358;28;20180;-74
2021/11/16 06:22:40;;;;;;;36.77;18.83;;;6.30;99.90;;;;;;4974849;28;20208;-73
2021/11/16 06:25:07;;;;;;;38.53;17.50;;;6.30;99.90;;;;;;4975332;28;20399;-74
2021/11/16 06:27:32;;;;;;;40.37;18.10;;;6.30;99.90;;;;;;4975098;28;20555;-74
2021/11/16 06:29:58;;;;;;;30.50;17.27;;;6.20;99.90;;;;;;4975138;28;20516;-73
2021/11/16 06:32:23;;;;;;;37.07;17.10;;;6.20;99.90;;;;;;4975026;28;20317;-72
2021/11/16 06:34:49;;;;;;;35.80;17.63;;;6.20;99.90;;;;;;4975887;28;20188;-72
2021/11/16 06:37:15;;;;;;;35.93;16.13;;;6.30;99.90;;;;;;4975914;28;20545;-72
2021/11/16 06:39:41;;;;;;;32.57;17.17;;;6.30;99.90;;;;;;4975561;28;20180;-72
2021/11/16 06:42:12;;;;;;;32.97;15.67;;;6.30;99.90;;;;;;4975971;28;20470;-71
2021/11/16 06:44:38;;;;;;;30.70;15.57;;;6.30;99.90;;;;;;4975474;28;20421;-72
2021/11/16 06:47:04;;;;;;;34.80;16.07;;;6.40;99.90;;;;;;4974793;28;20394;-71
2021/11/16 06:49:29;;;;;;;28.93;15.40;;;6.30;99.90;;;;;;4975257;28;20187;-71
2021/11/16 06:51:57;;;;;;;34.47;15.57;;;6.30;99.90;;;;;;4975274;28;20200;-72
2021/11/16 06:54:25;;;;;;;32.90;16.97;;;6.30;99.90;;;;;;4974715;28;20173;-72
2021/11/16 06:56:52;;;;;;;28.63;13.93;;;6.30;99.90;;;;;;4975407;28;20486;-72
2021/11/16 06:59:20;;;;;;;29.17;15.60;;;6.40;99.90;;;;;;4975243;28;20416;-72
2021/11/16 07:01:46;;;;;;;27.17;15.03;;;6.40;99.90;;;;;;4975101;28;20442;-72
2021/11/16 07:04:12;;;;;;;28.90;14.93;;;6.40;99.90;;;;;;4975161;28;20460;-73
2021/11/16 07:06:43;;;;;;;27.37;14.43;;;6.30;99.90;;;;;;4975015;28;20416;-72
2021/11/16 07:09:11;;;;;;;30.93;15.07;;;6.30;99.90;;;;;;4975342;28;20832;-72
2021/11/16 07:11:47;;;;;;;29.87;14.27;;;6.40;99.90;;;;;;4974918;28;20944;-72
2021/11/16 07:14:16;;;;;;;28.40;14.80;;;6.40;99.90;;;;;;4974399;28;20456;-72
2021/11/16 07:16:53;;;;;;;29.67;15.03;;;6.40;99.90;;;;;;4974437;28;20422;-71
2021/11/16 07:19:33;;;;;;;28.87;13.93;;;6.40;99.90;;;;;;4974411;28;20382;-73
2021/11/16 07:22:04;;;;;;;28.50;14.87;;;6.40;99.90;;;;;;4974209;28;20446;-71
2021/11/16 07:24:31;;;;;;;27.50;14.27;;;6.50;99.90;;;;;;4974881;28;20974;-72
2021/11/16 07:26:58;;;;;;;28.07;13.97;;;6.40;99.90;;;;;;4973381;28;20421;-73
2021/11/16 07:29:37;;;;;;;25.17;14.00;;;6.50;99.90;;;;;;4974206;28;20419;-73
2021/11/16 07:32:05;;;;;;;28.13;13.93;;;6.40;99.90;;;;;;4973751;28;20996;-72
2021/11/16 07:34:33;;;;;;;21.40;12.73;;;6.40;99.90;;;;;;4974387;28;20418;-72
2021/11/16 07:37:06;;;;;;;27.37;14.57;;;6.50;99.90;;;;;;4974271;28;20415;-73
2021/11/16 07:39:52;;;;;;;27.50;13.70;;;6.50;99.90;;;;;;4974330;28;20907;-72
2021/11/16 07:42:20;;;;;;;26.17;13.70;;;6.50;99.90;;;;;;4973891;28;21096;-73
2021/11/16 07:45:19;;;;;;;23.20;13.07;;;6.40;99.90;;;;;;4974113;28;20988;-72
2021/11/16 07:47:57;;;;;;;20.23;12.60;;;6.50;99.90;;;;;;4952122;28;20435;-72
2021/11/16 07:50:31;;;;;;;21.57;13.00;;;6.50;99.90;;;;;;4974133;28;20562;-72
2021/11/16 07:53:19;;;;;;;28.03;13.37;;;6.60;99.90;;;;;;4974003;28;20422;-72
2021/11/16 07:56:09;;;;;;;26.93;14.03;;;6.50;99.90;;;;;;4974085;28;20428;-71
2021/11/16 07:58:40;;;;;;;27.87;13.43;;;6.60;99.90;;;;;;4973579;28;20411;-71
2021/11/16 08:01:33;;;;;;;26.23;13.53;;;6.60;99.90;;;;;;4973640;28;20426;-72
2021/11/16 08:06:52;;;;;;;23.23;13.57;;;6.70;99.90;;;;;;4973929;28;20785;-71
2021/11/16 08:09:38;;;;;;;24.70;12.43;;;6.70;99.90;;;;;;4973579;28;20920;-73
2021/11/16 08:12:31;;;;;;;27.70;14.40;;;6.70;99.90;;;;;;4974062;28;20410;-72
2021/11/16 08:15:06;;;;;;;24.50;13.17;;;6.70;99.90;;;;;;4974263;28;20918;-71
2021/11/16 08:17:32;;;;;;;25.90;13.97;;;6.70;99.90;;;;;;4974178;28;20392;-72
2021/11/16 08:20:02;;;;;;;26.97;14.57;;;6.70;99.90;;;;;;4974876;28;20393;-72
2021/11/16 08:22:28;;;;;;;25.40;13.83;;;6.80;99.90;;;;;;4974919;28;20436;-71
2021/11/16 08:24:56;;;;;;;27.90;13.47;;;6.80;99.90;;;;;;4973973;28;20415;-71
2021/11/16 08:27:25;;;;;;;24.80;13.53;;;6.70;99.90;;;;;;4973838;28;20423;-72
2021/11/16 08:30:05;;;;;;;28.30;14.00;;;6.70;99.90;;;;;;4973228;28;20535;-73
2021/11/16 08:32:36;;;;;;;22.97;11.90;;;6.80;99.90;;;;;;4972754;28;20441;-71
2021/11/16 08:35:14;;;;;;;25.23;13.73;;;6.80;99.90;;;;;;4973026;28;20417;-72
2021/11/16 08:37:41;;;;;;;26.30;13.93;;;6.70;99.90;;;;;;4972828;28;20431;-73
2021/11/16 08:40:10;;;;;;;25.10;14.23;;;6.70;99.90;;;;;;4971573;28;20456;-73
2021/11/16 08:42:39;;;;;;;26.70;15.13;;;6.70;99.90;;;;;;4972807;28;20445;-73
2021/11/16 08:45:09;;;;;;;25.90;13.40;;;6.70;99.90;;;;;;4973617;28;20390;-72
2021/11/16 08:47:44;;;;;;;28.60;13.40;;;6.70;99.90;;;;;;4973719;28;20781;-72
2021/11/16 08:50:22;;;;;;;23.43;14.03;;;6.60;99.90;;;;;;4973549;28;20882;-72
2021/11/16 08:52:47;;;;;;;31.23;14.00;;;6.70;99.90;;;;;;4972125;28;20447;-72
2021/11/16 08:55:19;;;;;;;25.23;13.43;;;6.80;99.90;;;;;;4972561;28;20402;-72
2021/11/16 08:57:48;;;;;;;29.63;14.67;;;6.70;99.90;;;;;;4971984;28;20235;-72
2021/11/16 09:00:30;;;;;;;29.77;14.50;;;6.70;99.90;;;;;;4972097;28;20453;-72
2021/11/16 09:03:08;;;;;;;24.57;14.03;;;6.80;99.90;;;;;;4973039;28;20419;-71
2021/11/16 09:05:40;;;;;;;32.30;14.37;;;6.70;99.90;;;;;;4973331;28;20437;-73
2021/11/16 09:08:15;;;;;;;29.97;14.50;;;6.70;99.90;;;;;;4972885;28;20419;-72
2021/11/16 09:10:43;;;;;;;32.20;14.80;;;6.80;99.90;;;;;;4973257;28;20535;-72
2021/11/16 09:13:11;;;;;;;33.83;15.67;;;6.90;99.90;;;;;;4973138;28;20518;-72
2021/11/16 09:15:43;;;;;;;29.50;13.57;;;6.80;99.90;;;;;;4973360;28;20415;-72
2021/11/16 09:18:22;;;;;;;23.03;12.37;;;6.70;99.90;;;;;;4973366;28;20762;-72
2021/11/16 09:21:14;;;;;;;22.57;12.63;;;6.70;99.90;;;;;;4973420;28;20490;-71
2021/11/16 09:23:43;;;;;;;29.40;14.37;;;6.70;99.90;;;;;;4973291;28;20429;-71
2021/11/16 09:26:18;;;;;;;27.77;14.27;;;6.70;99.90;;;;;;4973041;28;20429;-72
2021/11/16 09:28:47;;;;;;;26.80;13.10;;;6.60;99.90;;;;;;4973063;28;20446;-72
2021/11/16 09:31:25;;;;;;;25.50;12.63;;;6.60;99.90;;;;;;4972790;28;20505;-72
2021/11/16 09:33:53;;;;;;;23.23;11.97;;;6.70;99.90;;;;;;4972726;28;20418;-71
2021/11/16 09:36:32;;;;;;;23.47;11.80;;;6.60;99.90;;;;;;4972570;28;20486;-72
2021/11/16 09:39:04;;;;;;;25.10;12.73;;;6.70;99.90;;;;;;4972665;28;20417;-72
2021/11/16 09:41:32;;;;;;;29.17;13.87;;;6.70;99.90;;;;;;4972619;28;20472;-72
2021/11/16 09:44:39;;;;;;;20.00;10.27;;;6.70;99.90;;;;;;4972797;28;20394;-72
2021/11/16 09:47:17;;;;;;;25.30;11.60;;;6.80;99.90;;;;;;4973269;28;20382;-72
2021/11/16 09:49:47;;;;;;;24.30;11.47;;;6.80;99.90;;;;;;4973676;28;20446;-72
2021/11/16 09:54:53;;;;;;;25.93;11.77;;;6.80;99.90;;;;;;5284005;23;20467;-69
2021/11/16 09:57:33;;;;;;;21.00;11.30;;;6.80;99.90;;;;;;4976948;28;20445;-71
2021/11/16 10:00:05;;;;;;;17.37;9.77;;;6.80;99.90;;;;;;4956344;28;20445;-71
2021/11/16 10:02:32;;;;;;;24.97;10.43;;;6.90;99.90;;;;;;4956380;28;20423;-71
2021/11/16 10:05:06;;;;;;;22.47;10.57;;;6.90;99.90;;;;;;4956044;28;20477;-71
2021/11/16 10:07:34;;;;;;;19.67;9.53;;;7.00;99.90;;;;;;4956418;28;20454;-71
2021/11/16 10:09:59;;;;;;;19.60;9.03;;;6.90;99.90;;;;;;4955407;28;20469;-73
2021/11/16 10:12:40;;;;;;;17.53;8.67;;;7.00;99.90;;;;;;4956108;28;20397;-72
2021/11/16 10:15:06;;;;;;;16.10;9.83;;;7.00;99.90;;;;;;4955436;28;20204;-70
2021/11/16 10:17:32;;;;;;;16.10;9.20;;;6.90;99.90;;;;;;4975199;28;20406;-70
2021/11/16 10:19:58;;;;;;;14.63;8.50;;;6.90;99.90;;;;;;4987591;28;20398;-71
2021/11/16 10:22:24;;;;;;;15.27;8.10;;;6.90;99.90;;;;;;4994257;28;20430;-71
2021/11/16 10:24:49;;;;;;;12.10;6.60;;;6.90;99.90;;;;;;4993975;28;20206;-71
2021/11/16 10:27:28;;;;;;;15.00;7.70;;;7.00;99.90;;;;;;4994668;28;20713;-71
2021/11/16 10:30:12;;;;;;;16.50;7.50;;;7.00;99.90;;;;;;4995082;28;20253;-71
2021/11/16 10:32:42;;;;;;;11.20;6.70;;;7.10;99.90;;;;;;4994356;28;20414;-71
2021/11/16 10:35:19;;;;;;;13.50;6.67;;;7.10;99.90;;;;;;4994148;28;20454;-71
2021/11/16 10:37:51;;;;;;;15.63;7.57;;;7.10;99.90;;;;;;4994388;28;20417;-71
2021/11/16 10:40:18;;;;;;;16.80;7.90;;;7.00;99.90;;;;;;4994139;28;20456;-71
2021/11/16 10:42:46;;;;;;;17.77;7.37;;;7.00;99.90;;;;;;4993923;28;20387;-69
2021/11/16 10:45:17;;;;;;;13.70;7.10;;;6.90;99.90;;;;;;4994028;28;20426;-71
2021/11/16 10:47:45;;;;;;;12.53;6.97;;;7.00;99.90;;;;;;4994077;28;20411;-72
2021/11/16 10:50:15;;;;;;;15.07;7.67;;;6.90;99.90;;;;;;4993845;28;20486;-71
2021/11/16 10:52:41;;;;;;;12.20;6.43;;;7.00;99.90;;;;;;4993697;28;20414;-71
2021/11/16 10:55:09;;;;;;;16.70;7.37;;;7.00;99.90;;;;;;4993410;28;20527;-71
2021/11/16 10:57:55;;;;;;;14.03;6.80;;;7.10;99.90;;;;;;4974691;28;20808;-72
2021/11/16 11:00:50;;;;;;;14.13;6.37;;;7.10;99.90;;;;;;4974377;28;20494;-71
2021/11/16 11:03:17;;;;;;;12.80;6.73;;;7.00;99.90;;;;;;4968580;28;20820;-71
2021/11/16 11:05:45;;;;;;;12.37;6.00;;;7.00;99.90;;;;;;4974338;28;20446;-71
2021/11/16 11:08:26;;;;;;;8.30;5.40;;;7.00;99.90;;;;;;4973980;28;20419;-71
2021/11/16 11:10:52;;;;;;;8.77;5.20;;;7.00;99.90;;;;;;4974190;28;20462;-71
2021/11/16 11:13:26;;;;;;;9.60;5.03;;;7.10;99.90;;;;;;4973668;28;20847;-71
2021/11/16 11:15:52;;;;;;;9.37;5.67;;;7.20;99.90;;;;;;4974227;28;20662;-71
2021/11/16 11:18:37;;;;;;;13.90;7.60;;;7.20;99.90;;;;;;4973933;28;20827;-72
2021/11/16 11:21:10;;;;;;;12.47;5.53;;;7.20;99.90;;;;;;4974093;28;20421;-73
2021/11/16 11:23:43;;;;;;;11.37;6.57;;;7.20;99.90;;;;;;4973063;28;20455;-71
2021/11/16 11:26:32;;;;;;;6.60;4.50;;;7.20;99.90;;;;;;4974160;28;20441;-71
2021/11/16 11:29:14;;;;;;;7.00;4.53;;;7.20;99.90;;;;;;4973952;28;20415;-70
2021/11/16 11:31:41;;;;;;;9.97;5.60;;;7.20;99.90;;;;;;4973825;28;20497;-72
2021/11/16 11:34:07;;;;;;;9.93;4.67;;;7.30;99.90;;;;;;4973359;28;20428;-71
2021/11/16 11:36:33;;;;;;;7.47;4.60;;;7.30;99.90;;;;;;4973824;28;20384;-71
2021/11/16 11:38:59;;;;;;;11.03;5.80;;;7.30;99.90;;;;;;4973586;28;20415;-72
2021/11/16 11:41:25;;;;;;;9.70;5.30;;;7.30;99.90;;;;;;4973650;28;20185;-71
2021/11/16 11:44:14;;;;;;;7.07;4.67;;;7.40;99.90;;;;;;4973194;28;20582;-72
2021/11/16 11:46:49;;;;;;;9.57;5.67;;;7.40;99.90;;;;;;4973853;28;20473;-71
2021/11/16 11:49:14;;;;;;;9.87;5.67;;;7.40;99.90;;;;;;4973252;28;20535;-73
2021/11/16 11:51:41;;;;;;;10.23;6.43;;;7.30;99.90;;;;;;4973562;28;20544;-71
2021/11/16 11:54:07;;;;;;;7.60;4.53;;;7.30;99.90;;;;;;4973051;28;20189;-71
2021/11/16 11:56:35;;;;;;;6.27;4.40;;;7.30;99.90;;;;;;4973607;28;20425;-71
2021/11/16 11:59:02;;;;;;;8.67;4.70;;;7.30;99.90;;;;;;4973491;28;20423;-71
2021/11/16 12:01:29;;;;;;;13.97;5.53;;;7.40;99.90;;;;;;4971903;28;20444;-71
2021/11/16 12:03:56;;;;;;;9.40;5.30;;;7.30;99.90;;;;;;4973150;28;20431;-71
2021/11/16 12:06:23;;;;;;;10.23;5.07;;;7.30;99.90;;;;;;4973158;28;20403;-72
2021/11/16 12:08:51;;;;;;;6.80;4.77;;;7.30;99.90;;;;;;4973267;28;20778;-72
2021/11/16 12:11:19;;;;;;;7.43;5.77;;;7.30;99.90;;;;;;4972915;28;20473;-72
2021/11/16 12:13:46;;;;;;;8.97;5.47;;;7.30;99.90;;;;;;4971303;28;20458;-71
2021/11/16 12:16:25;;;;;;;6.57;4.70;;;7.30;99.90;;;;;;4972859;28;20388;-71
2021/11/16 12:19:09;;;;;;;8.07;5.60;;;7.10;99.90;;;;;;4972984;28;21030;-72
2021/11/16 12:21:38;;;;;;;9.13;4.90;;;7.10;99.90;;;;;;4972884;28;20753;-73
2021/11/16 12:24:07;;;;;;;8.87;5.83;;;7.10;99.90;;;;;;4972494;28;20435;-71
2021/11/16 12:26:37;;;;;;;7.10;5.27;;;7.10;99.90;;;;;;4973120;28;20497;-71
2021/11/16 12:29:19;;;;;;;8.33;4.30;;;7.10;99.90;;;;;;4972493;28;20785;-72
2021/11/16 12:31:47;;;;;;;11.50;4.20;;;7.10;99.90;;;;;;4972946;28;20455;-72
2021/11/16 12:34:33;;;;;;;11.03;5.43;;;7.10;99.90;;;;;;4972148;28;20442;-72
2021/11/16 12:36:59;;;;;;;13.10;5.93;;;7.10;99.90;;;;;;4972911;28;20414;-71
2021/11/16 12:39:25;;;;;;;7.60;5.13;;;7.10;99.90;;;;;;4971755;28;20478;-71
2021/11/16 12:41:53;;;;;;;9.30;5.50;;;7.00;99.90;;;;;;4972930;28;20176;-72
2021/11/16 12:44:46;;;;;;;6.00;4.50;;;7.10;99.90;;;;;;4972343;28;20446;-72
2021/11/16 12:47:14;;;;;;;8.00;5.17;;;7.00;99.90;;;;;;4972868;28;20388;-72
2021/11/16 12:49:42;;;;;;;5.93;4.33;;;7.10;99.90;;;;;;4971978;28;20438;-72
2021/11/16 12:52:20;;;;;;;9.37;5.10;;;7.10;99.90;;;;;;4972899;28;20517;-71
2021/11/16 12:54:47;;;;;;;8.27;5.03;;;7.00;99.90;;;;;;4972351;28;20980;-72
2021/11/16 12:57:19;;;;;;;7.43;4.70;;;7.10;99.90;;;;;;4972202;28;20507;-71
2021/11/16 12:59:44;;;;;;;8.70;5.40;;;7.20;99.90;;;;;;4972280;28;20664;-71
2021/11/16 13:02:27;;;;;;;10.10;5.63;;;7.20;99.90;;;;;;4972226;28;20421;-72
2021/11/16 13:04:56;;;;;;;7.97;5.57;;;7.20;99.90;;;;;;4971979;28;20199;-72
2021/11/16 13:07:28;;;;;;;7.60;5.00;;;7.20;99.90;;;;;;4972262;28;20847;-72
2021/11/16 13:09:57;;;;;;;8.73;4.50;;;7.20;99.90;;;;;;4971149;28;20402;-71
2021/11/16 13:12:57;;;;;;;7.90;5.80;;;7.20;99.90;;;;;;4972098;28;20432;-71
2021/11/16 13:15:24;;;;;;;6.10;4.67;;;7.20;99.90;;;;;;4971115;28;20415;-71
2021/11/16 13:17:52;;;;;;;14.60;6.30;;;7.00;99.90;;;;;;4970566;28;20425;-73
2021/11/16 13:20:46;;;;;;;10.20;5.60;;;7.00;99.90;;;;;;4972309;28;20414;-73
2021/11/16 13:23:14;;;;;;;11.17;5.83;;;7.00;99.90;;;;;;4971634;28;20507;-72
2021/11/16 13:25:48;;;;;;;9.30;6.80;;;7.00;99.90;;;;;;4974615;28;20408;-71
2021/11/16 13:31:06;;;;;;;10.60;6.40;;;7.00;99.90;;;;;;4976094;28;20464;-71
2021/11/16 13:33:50;;;;;;;10.03;5.80;;;7.10;99.90;;;;;;4975699;28;20473;-73
2021/11/16 13:36:32;;;;;;;8.43;5.40;;;7.10;99.90;;;;;;4974542;28;20406;-71
2021/11/16 13:39:12;;;;;;;11.67;6.00;;;7.10;99.90;;;;;;4975775;28;20424;-71
2021/11/16 13:41:48;;;;;;;7.03;3.63;;;7.10;99.90;;;;;;4975108;28;20880;-72
2021/11/16 13:44:19;;;;;;;10.67;5.90;;;7.00;99.90;;;;;;4974393;28;20489;-71
2021/11/16 13:46:52;;;;;;;8.60;6.00;;;7.00;99.90;;;;;;4974654;28;20415;-71
2021/11/16 13:49:27;;;;;;;8.20;5.60;;;7.00;99.90;;;;;;4975421;28;20387;-72
2021/11/16 13:51:53;;;;;;;16.97;5.80;;;6.90;99.90;;;;;;4975745;28;21060;-71
2021/11/16 13:54:19;;;;;;;9.73;6.00;;;6.90;99.90;;;;;;4975021;28;20435;-71
2021/11/16 13:56:45;;;;;;;9.43;6.00;;;7.00;99.90;;;;;;4975692;28;20987;-71
2021/11/16 13:59:17;;;;;;;11.93;5.43;;;7.00;99.90;;;;;;4975192;28;20653;-72
2021/11/16 14:01:42;;;;;;;6.23;5.00;;;7.00;99.90;;;;;;4974449;28;20191;-71
2021/11/16 14:04:10;;;;;;;10.40;6.00;;;6.90;99.90;;;;;;4974845;28;20777;-72
2021/11/16 14:06:35;;;;;;;9.67;6.03;;;6.90;99.90;;;;;;4975650;28;20183;-72
2021/11/16 14:09:11;;;;;;;9.53;5.90;;;6.90;99.90;;;;;;4975126;28;20757;-71
2021/11/16 14:11:54;;;;;;;8.00;5.70;;;6.90;99.90;;;;;;4975565;28;20210;-72
2021/11/16 14:14:21;;;;;;;10.10;5.37;;;6.90;99.90;;;;;;4974540;28;20444;-72
2021/11/16 14:16:48;;;;;;;12.00;7.10;;;6.90;99.90;;;;;;4975405;28;20411;-71
2021/11/16 14:19:16;;;;;;;8.70;5.90;;;6.90;99.90;;;;;;4975061;28;20420;-72
2021/11/16 14:21:44;;;;;;;10.17;7.73;;;6.80;99.90;;;;;;4975155;28;20415;-72
2021/11/16 14:24:10;;;;;;;10.63;6.30;;;6.90;99.90;;;;;;4974675;28;20445;-72
2021/11/16 14:26:36;;;;;;;11.52;7.50;;;6.90;99.90;;;;;;4973902;28;20418;-73
2021/11/16 14:29:03;;;;;;;8.67;6.63;;;6.90;99.90;;;;;;4974956;28;20255;-72
2021/11/16 14:31:32;;;;;;;11.20;7.00;;;6.90;99.90;;;;;;4974764;28;21051;-73
2021/11/16 14:34:22;;;;;;;14.60;6.60;;;6.90;99.90;;;;;;4980016;28;20438;-71
2021/11/16 14:36:54;;;;;;;7.40;5.90;;;6.90;99.90;;;;;;4983576;28;20422;-72
2021/11/16 14:39:34;;;;;;;12.87;5.83;;;6.90;99.90;;;;;;4978544;28;20421;-73
2021/11/16 14:42:07;;;;;;;12.30;7.43;;;6.90;99.90;;;;;;4952959;29;20439;-73
2021/11/16 14:44:44;;;;;;;12.13;6.87;;;6.90;99.90;;;;;;4955098;28;20449;-73
2021/11/16 14:47:14;;;;;;;9.60;6.73;;;6.90;99.90;;;;;;4955165;29;20427;-73
2021/11/16 14:52:19;;;;;;;11.87;6.67;;;6.90;99.90;;;;;;4955271;28;20421;-72
2021/11/16 14:54:46;;;;;;;10.07;5.77;;;6.90;99.90;;;;;;4954945;28;20469;-73
2021/11/16 14:57:12;;;;;;;8.30;5.87;;;6.80;99.90;;;;;;4955036;28;20449;-73
2021/11/16 14:59:37;;;;;;;9.53;6.33;;;6.90;99.90;;;;;;4955108;28;20904;-73
2021/11/16 15:02:06;;;;;;;8.90;6.10;;;6.90;99.90;;;;;;4955167;28;20178;-73
2021/11/16 15:04:38;;;;;;;7.27;5.53;;;6.90;99.90;;;;;;4954808;28;20200;-73
2021/11/16 15:07:16;;;;;;;10.77;5.00;;;6.90;99.90;;;;;;4954914;28;20795;-73
2021/11/16 15:09:58;;;;;;;10.83;6.17;;;6.90;99.90;;;;;;4955096;28;20421;-72
2021/11/16 15:12:24;;;;;;;8.97;6.40;;;6.90;99.90;;;;;;4954618;28;20816;-73
2021/11/16 15:14:52;;;;;;;10.50;5.97;;;6.90;99.90;;;;;;4954785;28;20922;-73
2021/11/16 15:17:20;;;;;;;10.07;7.23;;;7.00;99.90;;;;;;4954658;28;20424;-73
2021/11/16 15:20:03;;;;;;;11.27;6.50;;;6.90;99.90;;;;;;4954866;28;20413;-72
2021/11/16 15:22:44;;;;;;;7.90;6.13;;;6.90;99.90;;;;;;4954749;28;20570;-74
2021/11/16 15:25:16;;;;;;;11.60;6.73;;;7.00;99.90;;;;;;4954448;28;20479;-73
2021/11/16 15:28:02;;;;;;;8.70;6.27;;;6.90;99.90;;;;;;4954704;28;20409;-73
2021/11/16 15:30:36;;;;;;;6.90;4.83;;;6.90;99.90;;;;;;4954522;28;21058;-73
2021/11/16 15:33:05;;;;;;;11.50;5.90;;;6.90;99.90;;;;;;4954113;28;20484;-73
2021/11/16 15:35:49;;;;;;;9.17;6.40;;;6.90;99.90;;;;;;4954591;28;20471;-73
2021/11/16 15:38:18;;;;;;;9.07;5.60;;;6.90;99.90;;;;;;4954281;28;20386;-73
2021/11/16 15:41:09;;;;;;;13.60;7.37;;;6.90;99.90;;;;;;4954365;28;21056;-73
2021/11/16 15:44:12;;;;;;;10.70;6.87;;;6.90;99.90;;;;;;4954123;28;20468;-72
2021/11/16 15:53:03;;;;;;;10.00;5.77;;;6.90;99.90;;;;;;4954348;28;20429;-73
2021/11/16 15:58:31;;;;;;;10.00;5.93;;;6.70;99.90;;;;;;4953945;29;20950;-74
2021/11/16 16:01:06;;;;;;;10.07;5.30;;;6.80;99.90;;;;;;4954099;28;20835;-73
2021/11/16 16:03:34;;;;;;;10.90;6.20;;;6.70;99.90;;;;;;4952031;28;20429;-74
2021/11/16 16:06:04;;;;;;;9.87;5.27;;;6.70;99.90;;;;;;4953948;28;20385;-74
2021/11/16 16:08:47;;;;;;;11.40;6.13;;;6.80;99.90;;;;;;4953589;28;20412;-74
2021/11/16 16:11:23;;;;;;;8.70;5.70;;;6.80;99.90;;;;;;4953697;28;20840;-74
2021/11/16 16:13:51;;;;;;;9.70;5.77;;;6.80;99.90;;;;;;4953357;28;20478;-74
2021/11/16 16:16:29;;;;;;;7.13;4.77;;;6.70;99.90;;;;;;4953755;28;20952;-74
2021/11/16 16:18:57;;;;;;;10.27;5.40;;;6.70;99.90;;;;;;4953605;28;20411;-74
2021/11/16 16:21:26;;;;;;;9.57;5.93;;;6.70;99.90;;;;;;4953953;28;21015;-74
2021/11/16 16:23:56;;;;;;;7.63;5.87;;;6.70;99.90;;;;;;4953362;28;20527;-74
2021/11/16 16:26:22;;;;;;;10.30;6.23;;;6.60;99.90;;;;;;4953562;29;20428;-74
2021/11/16 16:28:59;;;;;;;8.27;5.73;;;6.70;99.90;;;;;;4953551;28;20785;-74
2021/11/16 16:31:26;;;;;;;7.50;5.90;;;6.70;99.90;;;;;;4951506;29;20460;-74
2021/11/16 16:33:53;;;;;;;9.00;5.93;;;6.60;99.90;;;;;;4953343;28;21000;-74
2021/11/16 16:36:20;;;;;;;10.50;6.60;;;6.60;99.90;;;;;;4953456;28;20928;-75
2021/11/16 16:38:46;;;;;;;11.50;5.63;;;6.60;99.90;;;;;;4953560;28;20498;-75
2021/11/16 16:41:24;;;;;;;12.37;6.50;;;6.60;99.90;;;;;;4953140;28;20527;-74
2021/11/16 16:43:55;;;;;;;15.53;5.43;;;6.60;99.90;;;;;;4953122;28;20204;-74
2021/11/16 16:46:23;;;;;;;8.00;5.57;;;6.60;99.90;;;;;;4953148;28;20439;-74
2021/11/16 16:48:49;;;;;;;6.30;5.17;;;6.60;99.90;;;;;;4953432;28;20387;-74
2021/11/16 16:51:15;;;;;;;8.27;6.13;;;6.60;99.90;;;;;;4953378;28;20456;-74
2021/11/16 16:53:42;;;;;;;16.87;7.97;;;6.60;99.90;;;;;;4953054;28;20526;-74
2021/11/16 16:56:08;;;;;;;17.03;8.20;;;6.60;99.90;;;;;;4963528;28;20975;-73
2021/11/16 16:58:35;;;;;;;12.40;8.20;;;6.60;99.90;;;;;;4978133;28;20520;-74
2021/11/16 17:01:01;;;;;;;16.97;10.40;;;6.70;99.90;;;;;;4971494;28;20475;-74
2021/11/16 17:03:26;;;;;;;14.80;9.40;;;6.70;99.90;;;;;;4960845;28;20899;-74
2021/11/16 17:05:54;;;;;;;8.93;7.00;;;6.70;99.90;;;;;;4972154;28;20425;-74
2021/11/16 17:08:20;;;;;;;16.20;7.43;;;6.70;99.90;;;;;;4975728;28;20220;-74
2021/11/16 17:10:46;;;;;;;12.00;7.50;;;6.70;99.90;;;;;;4970445;28;20484;-75
2021/11/16 17:13:17;;;;;;;7.13;6.20;;;6.60;99.90;;;;;;4965321;28;20438;-74
2021/11/16 17:15:44;;;;;;;8.30;5.90;;;6.60;99.90;;;;;;4955314;28;20563;-73
2021/11/16 17:18:11;;;;;;;8.80;5.77;;;6.60;99.90;;;;;;4968462;28;20984;-74
2021/11/16 17:20:37;;;;;;;12.33;6.50;;;6.70;99.90;;;;;;4970225;28;20450;-74
2021/11/16 17:23:03;;;;;;;7.87;5.30;;;6.60;99.90;;;;;;4970975;28;20561;-74
2021/11/16 17:25:30;;;;;;;8.43;6.43;;;6.60;99.90;;;;;;4969928;28;20208;-75
2021/11/16 17:27:56;;;;;;;7.50;5.40;;;6.60;99.90;;;;;;4970922;28;20499;-74
2021/11/16 17:30:22;;;;;;;9.73;5.80;;;6.60;99.90;;;;;;4969844;28;20461;-74
2021/11/16 17:32:48;;;;;;;15.10;5.40;;;6.60;99.90;;;;;;4970986;28;20530;-72
2021/11/16 17:35:15;;;;;;;7.97;5.27;;;6.60;99.90;;;;;;4971361;28;20421;-74
2021/11/16 17:37:40;;;;;;;7.43;5.67;;;6.60;99.90;;;;;;4971407;28;20426;-74
2021/11/16 17:40:06;;;;;;;10.00;5.10;;;6.60;99.90;;;;;;4969542;28;20500;-75
2021/11/16 17:42:32;;;;;;;9.83;5.30;;;6.60;99.90;;;;;;4961071;28;20216;-74
2021/11/16 17:44:57;;;;;;;9.07;6.13;;;6.60;99.90;;;;;;4971582;28;20445;-74
2021/11/16 17:47:23;;;;;;;10.10;6.30;;;6.60;99.90;;;;;;4971651;28;20213;-74
2021/11/16 17:49:49;;;;;;;7.93;6.33;;;6.60;99.90;;;;;;4971770;28;20257;-75
2021/11/16 17:52:14;;;;;;;9.47;5.53;;;6.60;99.90;;;;;;4971415;28;20587;-75
2021/11/16 17:54:41;;;;;;;7.40;5.83;;;6.60;99.90;;;;;;4971650;28;20265;-75